createdAt,value
2023-04-13T00:02:41.780Z,97744.06
2023-04-13T00:08:45.072Z,97737.28
2023-04-13T00:14:50.735Z,97728.31
2023-04-13T00:20:52.654Z,97720.94
2023-04-13T00:26:54.607Z,97723.97
2023-04-13T00:32:56.627Z,97730.25
2023-04-13T00:38:58.885Z,97732.16
2023-04-13T00:45:00.772Z,97722.53
2023-04-13T00:51:03.811Z,97736.97
2023-04-13T00:57:06.814Z,97728.75
2023-04-13T01:03:09.794Z,97741.72
2023-04-13T01:09:20.085Z,97746.34
2023-04-13T01:15:23.223Z,97749.66
2023-04-13T01:21:29.152Z,97739.94
2023-04-13T01:27:52.738Z,97735.03
2023-04-13T01:33:54.710Z,97737.25
2023-04-13T01:39:56.571Z,97738.50
2023-04-13T01:46:13.936Z,97731.34
2023-04-13T01:52:17.750Z,97722.00
2023-04-13T01:58:20.612Z,97721.16
2023-04-13T02:04:23.411Z,97711.09
2023-04-13T02:10:26.513Z,97705.78
2023-04-13T02:16:28.550Z,97720.47
2023-04-13T02:22:30.437Z,97713.91
2023-04-13T02:28:33.058Z,97711.91
2023-04-13T02:34:35.526Z,97701.50
2023-04-13T02:40:38.769Z,97696.00
2023-04-13T02:46:40.880Z,97694.63
2023-04-13T02:52:43.836Z,97703.41
2023-04-13T02:58:45.919Z,97693.66
2023-04-13T03:04:48.826Z,97698.97
2023-04-13T03:10:52.328Z,97703.03
2023-04-13T03:16:54.573Z,97707.09
2023-04-13T03:22:58.504Z,97706.72
2023-04-13T03:29:00.408Z,97712.25
2023-04-13T03:35:02.336Z,97707.78
2023-04-13T03:41:04.523Z,97710.81
2023-04-13T03:47:09.523Z,97720.81
2023-04-13T03:53:11.388Z,97723.28
2023-04-13T03:59:13.268Z,97735.13
2023-04-13T04:05:16.425Z,97714.81
2023-04-13T04:11:18.537Z,97719.34
2023-04-13T04:17:20.999Z,97720.16
2023-04-13T04:23:23.238Z,97727.28
2023-04-13T04:29:34.563Z,97729.09
2023-04-13T04:35:43.193Z,97722.75
2023-04-13T04:41:45.115Z,97733.41
2023-04-13T04:47:49.988Z,97750.91
2023-04-13T04:53:53.123Z,97745.63
2023-04-13T04:59:55.143Z,97762.22
2023-04-13T05:05:57.023Z,97757.88
2023-04-13T05:11:58.917Z,97769.84
2023-04-13T05:18:00.838Z,97769.19
2023-04-13T05:24:02.819Z,97773.47
2023-04-13T05:30:06.188Z,97777.94
2023-04-13T05:36:08.634Z,97778.59
2023-04-13T05:42:10.856Z,97774.88
2023-04-13T05:48:13.141Z,97773.72
2023-04-13T05:54:15.071Z,97786.78
2023-04-13T06:00:19.418Z,97788.75
2023-04-13T06:06:21.496Z,97792.97
2023-04-13T06:12:23.985Z,97791.03
2023-04-13T06:18:29.140Z,97802.84
2023-04-13T06:24:31.019Z,97801.44
2023-04-13T06:30:33.259Z,97803.81
2023-04-13T06:36:35.741Z,97811.53
2023-04-13T06:42:38.359Z,97810.16
2023-04-13T06:48:40.518Z,97814.50
2023-04-13T06:54:42.417Z,97812.13
2023-04-13T07:00:44.426Z,97827.06
2023-04-13T07:06:46.981Z,97825.88
2023-04-13T07:12:48.960Z,97835.34
2023-04-13T07:18:50.885Z,97835.59
2023-04-13T07:24:52.760Z,97838.94
2023-04-13T07:30:54.689Z,97840.53
2023-04-13T07:36:56.880Z,97847.94
2023-04-13T07:42:58.805Z,97858.28
2023-04-13T07:49:01.017Z,97867.22
2023-04-13T07:55:03.606Z,97876.72
2023-04-13T08:01:06.465Z,97878.09
2023-04-13T08:07:08.404Z,97876.91
2023-04-13T08:13:10.332Z,97875.06
2023-04-13T08:19:13.273Z,97887.16
2023-04-13T08:25:15.598Z,97908.13
2023-04-13T08:31:17.591Z,97898.50
2023-04-13T08:37:20.863Z,97905.13
2023-04-13T08:43:22.814Z,97913.19
2023-04-13T08:49:25.987Z,97918.63
2023-04-13T08:55:29.391Z,97917.91
2023-04-13T09:01:36.360Z,97935.97
2023-04-13T09:07:38.798Z,97944.03
2023-04-13T09:13:41.371Z,97940.34
2023-04-13T09:19:43.246Z,97952.81
2023-04-13T09:25:47.217Z,97958.09
2023-04-13T09:31:49.268Z,97970.16
2023-04-13T09:37:55.994Z,97962.28
2023-04-13T09:44:20.752Z,97975.72
2023-04-13T09:50:28.859Z,97962.75
2023-04-13T09:56:31.957Z,97980.19
2023-04-13T10:02:34.147Z,97983.38
2023-04-13T10:08:41.963Z,97968.44
2023-04-13T10:14:48.736Z,97985.78
2023-04-13T10:20:52.553Z,97992.53
2023-04-13T10:26:56.239Z,98005.78
2023-04-13T10:33:09.881Z,98001.03
2023-04-13T10:39:12.054Z,98005.50
2023-04-13T10:45:18.089Z,98015.00
2023-04-13T10:51:20.199Z,98023.09
2023-04-13T10:57:22.157Z,98017.03
2023-04-13T11:03:28.708Z,98029.25
2023-04-13T11:09:31.716Z,98021.78
2023-04-13T11:15:34.173Z,98036.78
2023-04-13T11:21:36.050Z,98035.06
2023-04-13T11:27:38.288Z,98066.34
2023-04-13T11:33:41.028Z,98082.06
2023-04-13T11:39:46.383Z,98076.13
2023-04-13T11:45:48.998Z,98061.88
2023-04-13T11:51:51.585Z,98062.06
2023-04-13T11:57:54.516Z,98069.91
2023-04-13T12:04:14.753Z,98087.50
2023-04-13T12:10:39.269Z,98076.91
2023-04-13T12:17:03.994Z,98079.41
2023-04-13T12:23:24.845Z,98075.06
2023-04-13T12:29:27.122Z,98074.00
2023-04-13T12:35:29.035Z,98085.75
2023-04-13T12:41:32.331Z,98091.97
2023-04-13T12:47:34.454Z,98085.44
2023-04-13T12:53:36.464Z,98091.69
2023-04-13T12:59:38.572Z,98086.41
2023-04-13T13:05:40.627Z,98086.16
2023-04-13T13:11:42.529Z,98081.81
2023-04-13T13:17:44.536Z,98091.00
2023-04-13T13:23:46.558Z,98088.03
2023-04-13T13:29:48.544Z,98096.44
2023-04-13T13:35:50.441Z,98102.28
2023-04-13T13:41:52.338Z,98098.19
2023-04-13T13:47:58.382Z,98109.50
2023-04-13T13:54:00.374Z,98115.94
2023-04-13T14:00:05.097Z,98126.03
2023-04-13T14:06:07.814Z,98139.63
2023-04-13T14:12:09.910Z,98141.28
2023-04-13T14:18:12.102Z,98132.97
2023-04-13T14:24:14.149Z,98126.19
2023-04-13T14:30:17.670Z,98128.41
2023-04-13T14:36:19.581Z,98134.06
2023-04-13T14:42:22.422Z,98142.03
2023-04-13T14:48:24.772Z,98151.09
2023-04-13T14:54:26.699Z,98162.03
2023-04-13T15:00:41.316Z,98160.97
2023-04-13T15:06:43.779Z,98154.72
2023-04-13T15:12:45.877Z,98179.94
2023-04-13T15:18:47.784Z,98185.66
2023-04-13T15:24:49.748Z,98193.91
2023-04-13T15:30:54.577Z,98199.84
2023-04-13T15:36:57.059Z,98210.81
2023-04-13T15:42:59.049Z,98218.13
2023-04-13T15:49:01.314Z,98224.75
2023-04-13T15:55:03.739Z,98223.75
2023-04-13T16:01:09.377Z,98228.72
2023-04-13T16:07:14.344Z,98230.56
2023-04-13T16:13:19.736Z,98242.34
2023-04-13T16:19:21.681Z,98249.47
2023-04-13T16:25:23.867Z,98257.25
2023-04-13T16:31:26.153Z,98276.75
2023-04-13T16:37:28.049Z,98298.00
2023-04-13T16:43:29.948Z,98298.88
2023-04-13T16:49:32.498Z,98305.38
2023-04-13T16:55:34.388Z,98303.78
2023-04-13T17:01:39.106Z,98294.16
2023-04-13T17:07:44.503Z,98313.72
2023-04-13T17:13:46.857Z,98336.53
2023-04-13T17:19:51.286Z,98344.31
2023-04-13T17:25:53.904Z,98364.81
2023-04-13T17:31:56.565Z,98380.72
2023-04-13T17:37:58.465Z,98382.38
2023-04-13T17:44:01.519Z,98381.69
2023-04-13T17:50:03.575Z,98373.09
2023-04-13T17:56:05.885Z,98381.69
2023-04-13T18:02:07.858Z,98388.03
2023-04-13T18:08:09.805Z,98407.09
2023-04-13T18:14:13.114Z,98413.31
2023-04-13T18:20:15.014Z,98422.22
2023-04-13T18:26:17.213Z,98436.09
2023-04-13T18:32:19.171Z,98439.22
2023-04-13T18:38:21.491Z,98446.03
2023-04-13T18:44:23.584Z,98459.19
2023-04-13T18:50:26.679Z,98463.91
2023-04-13T18:56:28.611Z,98462.84
2023-04-13T19:02:30.731Z,98457.06
2023-04-13T19:08:32.939Z,98467.69
2023-04-13T19:14:34.879Z,98476.47
2023-04-13T19:20:36.774Z,98491.78
2023-04-13T19:26:42.826Z,98498.69
2023-04-13T19:32:46.841Z,98501.88
2023-04-13T19:38:48.918Z,98509.34
2023-04-13T19:44:51.629Z,98502.50
2023-04-13T19:50:53.572Z,98513.22
2023-04-13T19:56:55.688Z,98526.56
2023-04-13T20:03:03.051Z,98524.59
2023-04-13T20:09:14.390Z,98544.94
2023-04-13T20:15:17.577Z,98535.94
2023-04-13T20:21:19.484Z,98522.16
2023-04-13T20:27:22.632Z,98523.16
2023-04-13T20:33:24.615Z,98536.72
2023-04-13T20:39:30.162Z,98530.59
2023-04-13T20:45:32.204Z,98524.66
2023-04-13T20:51:34.214Z,98537.06
2023-04-13T20:57:41.684Z,98529.41
2023-04-13T21:03:43.793Z,98527.69
2023-04-13T21:09:46.164Z,98530.72
2023-04-13T21:15:48.121Z,98526.78
2023-04-13T21:21:50.005Z,98526.13
2023-04-13T21:27:52.028Z,98528.16
2023-04-13T21:33:55.246Z,98525.72
2023-04-13T21:39:57.813Z,98527.13
2023-04-13T21:45:59.786Z,98525.16
2023-04-13T21:52:01.771Z,98534.25
2023-04-13T21:58:03.717Z,98533.84
2023-04-13T22:04:06.261Z,98540.50
2023-04-13T22:10:08.826Z,98547.63
2023-04-13T22:16:10.894Z,98542.56
2023-04-13T22:22:12.813Z,98556.38
2023-04-13T22:28:14.695Z,98564.13
2023-04-13T22:34:16.640Z,98564.31
2023-04-13T22:40:18.755Z,98552.44
2023-04-13T22:46:20.841Z,98559.19
2023-04-13T22:52:22.782Z,98561.63
2023-04-13T22:58:24.762Z,98546.22
2023-04-13T23:04:26.865Z,98549.53
2023-04-13T23:10:31.503Z,98555.97
2023-04-13T23:16:34.542Z,98555.31
2023-04-13T23:22:37.269Z,98550.56
2023-04-13T23:28:39.228Z,98556.09
2023-04-13T23:34:41.242Z,98560.34
2023-04-13T23:40:43.177Z,98574.13
2023-04-13T23:46:45.564Z,98575.19
2023-04-13T23:52:47.487Z,98580.53
2023-04-13T23:58:49.418Z,98585.47
